sensor_id;sensor_type;location;lat;lon;timestamp;pressure;altitude;pressure_sealevel;temperature;humidity
64841;BME280;51307;52.162;7.560;2023-04-26T00:02:23;101299.22;;;4.86;55.04
64841;BME280;51307;52.162;7.560;2023-04-26T00:04:52;101301.94;;;5.46;53.73
64841;BME280;51307;52.162;7.560;2023-04-26T00:07:21;101297.66;;;5.08;53.96
64841;BME280;51307;52.162;7.560;2023-04-26T00:09:49;101299.25;;;5.10;54.24
64841;BME280;51307;52.162;7.560;2023-04-26T00:12:15;101294.06;;;5.09;54.28
64841;BME280;51307;52.162;7.560;2023-04-26T00:14:41;101303.25;;;5.16;54.35
64841;BME280;51307;52.162;7.560;2023-04-26T00:17:06;101301.13;;;4.84;55.04
64841;BME280;51307;52.162;7.560;2023-04-26T00:19:32;101307.41;;;4.83;55.27
64841;BME280;51307;52.162;7.560;2023-04-26T00:21:57;101307.03;;;5.00;54.97
64841;BME280;51307;52.162;7.560;2023-04-26T00:24:23;101302.19;;;4.81;55.08
64841;BME280;51307;52.162;7.560;2023-04-26T00:26:48;101301.88;;;4.86;55.13
64841;BME280;51307;52.162;7.560;2023-04-26T00:29:14;101304.53;;;4.86;54.83
64841;BME280;51307;52.162;7.560;2023-04-26T00:31:39;101300.53;;;4.67;55.42
64841;BME280;51307;52.162;7.560;2023-04-26T00:34:05;101307.03;;;5.00;54.80
64841;BME280;51307;52.162;7.560;2023-04-26T00:36:31;101313.00;;;4.91;54.78
64841;BME280;51307;52.162;7.560;2023-04-26T00:38:56;101308.59;;;4.79;54.88
64841;BME280;51307;52.162;7.560;2023-04-26T00:41:22;101301.31;;;4.94;54.76
64841;BME280;51307;52.162;7.560;2023-04-26T00:43:48;101297.00;;;4.80;55.01
64841;BME280;51307;52.162;7.560;2023-04-26T00:46:14;101293.50;;;4.79;55.22
64841;BME280;51307;52.162;7.560;2023-04-26T00:48:39;101295.63;;;4.74;55.17
64841;BME280;51307;52.162;7.560;2023-04-26T00:51:05;101293.16;;;4.84;54.89
64841;BME280;51307;52.162;7.560;2023-04-26T00:53:31;101292.38;;;4.95;54.50
64841;BME280;51307;52.162;7.560;2023-04-26T00:55:58;101284.84;;;4.64;55.17
64841;BME280;51307;52.162;7.560;2023-04-26T00:58:24;101274.72;;;4.82;54.85
64841;BME280;51307;52.162;7.560;2023-04-26T01:00:50;101285.91;;;4.99;54.64
64841;BME280;51307;52.162;7.560;2023-04-26T01:03:16;101287.16;;;4.69;54.73
64841;BME280;51307;52.162;7.560;2023-04-26T01:05:42;101289.50;;;4.74;55.41
64841;BME280;51307;52.162;7.560;2023-04-26T01:08:08;101284.97;;;4.50;55.53
64841;BME280;51307;52.162;7.560;2023-04-26T01:10:34;101289.63;;;4.72;55.21
64841;BME280;51307;52.162;7.560;2023-04-26T01:13:01;101290.28;;;4.50;55.56
64841;BME280;51307;52.162;7.560;2023-04-26T01:15:27;101289.69;;;4.70;55.23
64841;BME280;51307;52.162;7.560;2023-04-26T01:17:55;101294.91;;;4.46;55.79
64841;BME280;51307;52.162;7.560;2023-04-26T01:20:21;101293.13;;;4.34;56.12
64841;BME280;51307;52.162;7.560;2023-04-26T01:22:47;101295.22;;;4.80;54.78
64841;BME280;51307;52.162;7.560;2023-04-26T01:25:13;101289.84;;;4.93;54.42
64841;BME280;51307;52.162;7.560;2023-04-26T01:27:40;101297.16;;;4.65;55.04
64841;BME280;51307;52.162;7.560;2023-04-26T01:30:06;101300.47;;;4.93;54.21
64841;BME280;51307;52.162;7.560;2023-04-26T01:32:32;101292.06;;;4.99;54.60
64841;BME280;51307;52.162;7.560;2023-04-26T01:34:59;101291.84;;;4.39;55.86
64841;BME280;51307;52.162;7.560;2023-04-26T01:37:24;101296.34;;;4.52;55.54
64841;BME280;51307;52.162;7.560;2023-04-26T01:39:50;101297.16;;;4.52;55.69
64841;BME280;51307;52.162;7.560;2023-04-26T01:42:19;101297.38;;;4.36;55.77
64841;BME280;51307;52.162;7.560;2023-04-26T01:44:44;101302.47;;;4.65;55.21
64841;BME280;51307;52.162;7.560;2023-04-26T01:47:10;101294.75;;;4.86;54.90
64841;BME280;51307;52.162;7.560;2023-04-26T01:49:35;101287.63;;;4.50;55.83
64841;BME280;51307;52.162;7.560;2023-04-26T01:52:01;101291.22;;;4.49;55.58
64841;BME280;51307;52.162;7.560;2023-04-26T01:54:27;101295.47;;;4.64;55.47
64841;BME280;51307;52.162;7.560;2023-04-26T01:56:52;101296.84;;;4.94;54.57
64841;BME280;51307;52.162;7.560;2023-04-26T01:59:17;101293.63;;;4.78;54.99
64841;BME280;51307;52.162;7.560;2023-04-26T02:01:43;101296.72;;;4.33;55.75
64841;BME280;51307;52.162;7.560;2023-04-26T02:04:09;101298.00;;;4.40;55.80
64841;BME280;51307;52.162;7.560;2023-04-26T02:06:34;101299.59;;;4.68;54.71
64841;BME280;51307;52.162;7.560;2023-04-26T02:09:00;101296.41;;;4.63;55.06
64841;BME280;51307;52.162;7.560;2023-04-26T02:11:26;101299.06;;;4.37;55.80
64841;BME280;51307;52.162;7.560;2023-04-26T02:13:52;101297.50;;;4.48;55.79
64841;BME280;51307;52.162;7.560;2023-04-26T02:16:18;101295.00;;;4.70;54.99
64841;BME280;51307;52.162;7.560;2023-04-26T02:18:43;101298.53;;;4.71;55.03
64841;BME280;51307;52.162;7.560;2023-04-26T02:21:12;101290.88;;;4.66;54.80
64841;BME280;51307;52.162;7.560;2023-04-26T02:23:37;101290.81;;;4.55;54.96
64841;BME280;51307;52.162;7.560;2023-04-26T02:26:03;101293.34;;;4.69;54.72
64841;BME280;51307;52.162;7.560;2023-04-26T02:28:29;101292.59;;;4.42;55.38
64841;BME280;51307;52.162;7.560;2023-04-26T02:30:55;101298.72;;;4.42;55.60
64841;BME280;51307;52.162;7.560;2023-04-26T02:33:21;101301.38;;;4.68;55.16
64841;BME280;51307;52.162;7.560;2023-04-26T02:35:47;101304.38;;;4.25;55.79
64841;BME280;51307;52.162;7.560;2023-04-26T02:38:12;101304.91;;;4.04;56.44
64841;BME280;51307;52.162;7.560;2023-04-26T02:40:38;101309.34;;;3.78;57.49
64841;BME280;51307;52.162;7.560;2023-04-26T02:43:03;101299.81;;;4.14;56.74
64841;BME280;51307;52.162;7.560;2023-04-26T02:45:29;101312.31;;;4.37;55.98
64841;BME280;51307;52.162;7.560;2023-04-26T02:47:54;101315.28;;;4.33;56.52
64841;BME280;51307;52.162;7.560;2023-04-26T02:50:20;101304.91;;;4.30;56.38
64841;BME280;51307;52.162;7.560;2023-04-26T02:52:46;101303.44;;;4.13;56.68
64841;BME280;51307;52.162;7.560;2023-04-26T02:55:11;101302.03;;;4.46;55.98
64841;BME280;51307;52.162;7.560;2023-04-26T02:57:36;101302.25;;;4.30;56.10
64841;BME280;51307;52.162;7.560;2023-04-26T03:00:02;101302.47;;;4.52;55.78
64841;BME280;51307;52.162;7.560;2023-04-26T03:02:29;101302.47;;;4.27;56.24
64841;BME280;51307;52.162;7.560;2023-04-26T03:04:55;101295.66;;;4.35;56.09
64841;BME280;51307;52.162;7.560;2023-04-26T03:07:21;101306.69;;;4.42;55.86
64841;BME280;51307;52.162;7.560;2023-04-26T03:09:46;101301.19;;;4.32;56.25
64841;BME280;51307;52.162;7.560;2023-04-26T03:12:12;101309.25;;;4.18;56.57
64841;BME280;51307;52.162;7.560;2023-04-26T03:14:38;101305.41;;;3.96;57.19
64841;BME280;51307;52.162;7.560;2023-04-26T03:17:03;101302.16;;;3.93;56.87
64841;BME280;51307;52.162;7.560;2023-04-26T03:19:29;101301.94;;;4.09;56.92
64841;BME280;51307;52.162;7.560;2023-04-26T03:21:55;101301.53;;;4.28;56.36
64841;BME280;51307;52.162;7.560;2023-04-26T03:24:21;101292.72;;;4.14;56.40
64841;BME280;51307;52.162;7.560;2023-04-26T03:26:47;101294.84;;;4.35;56.20
64841;BME280;51307;52.162;7.560;2023-04-26T03:29:12;101295.06;;;4.32;55.87
64841;BME280;51307;52.162;7.560;2023-04-26T03:31:38;101294.97;;;4.08;56.91
64841;BME280;51307;52.162;7.560;2023-04-26T03:34:04;101297.59;;;4.20;56.80
64841;BME280;51307;52.162;7.560;2023-04-26T03:36:29;101288.47;;;3.99;57.23
64841;BME280;51307;52.162;7.560;2023-04-26T03:38:55;101296.72;;;4.33;56.37
64841;BME280;51307;52.162;7.560;2023-04-26T03:41:21;101291.78;;;4.02;57.06
64841;BME280;51307;52.162;7.560;2023-04-26T03:43:47;101293.56;;;4.15;56.68
64841;BME280;51307;52.162;7.560;2023-04-26T03:46:13;101285.97;;;4.10;56.91
64841;BME280;51307;52.162;7.560;2023-04-26T03:48:38;101286.25;;;3.80;57.46
64841;BME280;51307;52.162;7.560;2023-04-26T03:51:04;101295.47;;;4.26;56.57
64841;BME280;51307;52.162;7.560;2023-04-26T03:53:30;101286.38;;;4.17;56.67
64841;BME280;51307;52.162;7.560;2023-04-26T03:55:55;101284.44;;;4.19;56.42
64841;BME280;51307;52.162;7.560;2023-04-26T03:58:24;101287.63;;;4.24;56.52
64841;BME280;51307;52.162;7.560;2023-04-26T04:00:50;101293.63;;;3.62;57.90
64841;BME280;51307;52.162;7.560;2023-04-26T04:03:16;101282.44;;;3.71;58.27
64841;BME280;51307;52.162;7.560;2023-04-26T04:05:41;101283.28;;;3.84;57.82
64841;BME280;51307;52.162;7.560;2023-04-26T04:08:06;101286.78;;;3.85;57.43
64841;BME280;51307;52.162;7.560;2023-04-26T04:10:32;101288.06;;;4.18;56.77
64841;BME280;51307;52.162;7.560;2023-04-26T04:12:58;101297.28;;;3.99;57.01
64841;BME280;51307;52.162;7.560;2023-04-26T04:15:23;101290.50;;;3.95;57.09
64841;BME280;51307;52.162;7.560;2023-04-26T04:17:49;101290.91;;;4.15;56.81
64841;BME280;51307;52.162;7.560;2023-04-26T04:20:14;101290.69;;;4.18;56.71
64841;BME280;51307;52.162;7.560;2023-04-26T04:22:40;101297.03;;;3.77;57.62
64841;BME280;51307;52.162;7.560;2023-04-26T04:25:06;101299.28;;;3.96;57.10
64841;BME280;51307;52.162;7.560;2023-04-26T04:27:33;101296.00;;;3.92;57.65
64841;BME280;51307;52.162;7.560;2023-04-26T04:29:59;101290.81;;;3.91;57.53
64841;BME280;51307;52.162;7.560;2023-04-26T04:32:28;101295.91;;;4.07;56.77
64841;BME280;51307;52.162;7.560;2023-04-26T04:34:53;101294.41;;;3.77;57.96
64841;BME280;51307;52.162;7.560;2023-04-26T04:37:19;101291.88;;;3.75;57.52
64841;BME280;51307;52.162;7.560;2023-04-26T04:39:45;101295.91;;;4.07;57.22
64841;BME280;51307;52.162;7.560;2023-04-26T04:42:10;101301.59;;;4.00;57.57
64841;BME280;51307;52.162;7.560;2023-04-26T04:44:37;101300.97;;;3.84;57.76
64841;BME280;51307;52.162;7.560;2023-04-26T04:47:04;101298.41;;;3.69;57.95
64841;BME280;51307;52.162;7.560;2023-04-26T04:49:29;101305.63;;;3.93;57.59
64841;BME280;51307;52.162;7.560;2023-04-26T04:51:55;101300.00;;;3.72;57.83
64841;BME280;51307;52.162;7.560;2023-04-26T04:54:22;101297.69;;;3.93;57.42
64841;BME280;51307;52.162;7.560;2023-04-26T04:56:47;101295.06;;;4.06;57.19
64841;BME280;51307;52.162;7.560;2023-04-26T04:59:13;101300.25;;;4.20;56.95
64841;BME280;51307;52.162;7.560;2023-04-26T05:01:38;101297.16;;;4.39;56.49
64841;BME280;51307;52.162;7.560;2023-04-26T05:04:05;101303.09;;;4.04;57.45
64841;BME280;51307;52.162;7.560;2023-04-26T05:06:31;101297.97;;;3.63;58.22
64841;BME280;51307;52.162;7.560;2023-04-26T05:08:57;101303.94;;;3.92;57.90
64841;BME280;51307;52.162;7.560;2023-04-26T05:11:23;101305.53;;;3.95;57.71
64841;BME280;51307;52.162;7.560;2023-04-26T05:13:49;101304.78;;;3.80;58.19
64841;BME280;51307;52.162;7.560;2023-04-26T05:16:15;101297.63;;;3.54;59.13
64841;BME280;51307;52.162;7.560;2023-04-26T05:18:41;101300.44;;;4.04;57.83
64841;BME280;51307;52.162;7.560;2023-04-26T05:21:06;101301.19;;;4.45;57.17
64841;BME280;51307;52.162;7.560;2023-04-26T05:23:32;101304.91;;;4.30;57.47
64841;BME280;51307;52.162;7.560;2023-04-26T05:26:05;101311.06;;;4.30;57.31
64841;BME280;51307;52.162;7.560;2023-04-26T05:28:32;101313.03;;;4.39;57.47
64841;BME280;51307;52.162;7.560;2023-04-26T05:30:58;101322.78;;;4.00;58.14
64841;BME280;51307;52.162;7.560;2023-04-26T05:33:25;101314.56;;;4.31;57.72
64841;BME280;51307;52.162;7.560;2023-04-26T05:35:52;101330.63;;;4.02;58.48
64841;BME280;51307;52.162;7.560;2023-04-26T05:38:18;101334.56;;;4.22;58.12
64841;BME280;51307;52.162;7.560;2023-04-26T05:40:44;101327.25;;;4.26;57.79
64841;BME280;51307;52.162;7.560;2023-04-26T05:43:10;101337.00;;;4.64;57.27
64841;BME280;51307;52.162;7.560;2023-04-26T05:45:36;101332.47;;;4.53;57.48
64841;BME280;51307;52.162;7.560;2023-04-26T05:48:01;101342.00;;;4.68;57.24
64841;BME280;51307;52.162;7.560;2023-04-26T05:50:27;101344.75;;;4.54;57.61
64841;BME280;51307;52.162;7.560;2023-04-26T05:52:52;101333.81;;;4.46;57.83
64841;BME280;51307;52.162;7.560;2023-04-26T05:55:19;101343.53;;;4.84;57.14
64841;BME280;51307;52.162;7.560;2023-04-26T05:57:44;101344.13;;;4.50;57.47
64841;BME280;51307;52.162;7.560;2023-04-26T06:00:10;101344.06;;;4.89;57.12
64841;BME280;51307;52.162;7.560;2023-04-26T06:02:37;101345.94;;;4.50;57.63
64841;BME280;51307;52.162;7.560;2023-04-26T06:05:02;101346.97;;;4.47;57.70
64841;BME280;51307;52.162;7.560;2023-04-26T06:07:29;101346.66;;;4.78;57.29
64841;BME280;51307;52.162;7.560;2023-04-26T06:09:55;101354.78;;;4.87;57.24
64841;BME280;51307;52.162;7.560;2023-04-26T06:12:20;101351.00;;;4.79;57.18
64841;BME280;51307;52.162;7.560;2023-04-26T06:14:46;101358.31;;;4.62;57.45
64841;BME280;51307;52.162;7.560;2023-04-26T06:17:11;101356.53;;;4.50;57.63
64841;BME280;51307;52.162;7.560;2023-04-26T06:19:37;101350.25;;;4.89;57.33
64841;BME280;51307;52.162;7.560;2023-04-26T06:22:02;101361.97;;;4.98;57.01
64841;BME280;51307;52.162;7.560;2023-04-26T06:24:29;101350.28;;;5.14;56.62
64841;BME280;51307;52.162;7.560;2023-04-26T06:26:54;101350.09;;;5.28;56.24
64841;BME280;51307;52.162;7.560;2023-04-26T06:29:20;101355.75;;;5.23;56.48
64841;BME280;51307;52.162;7.560;2023-04-26T06:31:46;101356.16;;;5.30;56.27
64841;BME280;51307;52.162;7.560;2023-04-26T06:34:11;101360.31;;;5.46;56.19
64841;BME280;51307;52.162;7.560;2023-04-26T06:36:36;101356.19;;;5.42;55.83
64841;BME280;51307;52.162;7.560;2023-04-26T06:39:02;101371.19;;;5.05;56.60
64841;BME280;51307;52.162;7.560;2023-04-26T06:41:28;101356.38;;;5.27;56.25
64841;BME280;51307;52.162;7.560;2023-04-26T06:43:53;101363.03;;;5.57;55.50
64841;BME280;51307;52.162;7.560;2023-04-26T06:46:19;101367.50;;;5.56;55.80
64841;BME280;51307;52.162;7.560;2023-04-26T06:48:45;101363.22;;;5.43;56.47
64841;BME280;51307;52.162;7.560;2023-04-26T06:51:10;101369.00;;;5.96;54.86
64841;BME280;51307;52.162;7.560;2023-04-26T06:53:36;101364.25;;;5.88;55.11
64841;BME280;51307;52.162;7.560;2023-04-26T06:56:02;101359.81;;;6.00;54.56
64841;BME280;51307;52.162;7.560;2023-04-26T06:58:28;101370.31;;;5.90;54.39
64841;BME280;51307;52.162;7.560;2023-04-26T07:00:53;101368.44;;;6.15;53.85
64841;BME280;51307;52.162;7.560;2023-04-26T07:03:19;101363.34;;;5.77;54.78
64841;BME280;51307;52.162;7.560;2023-04-26T07:05:45;101365.50;;;6.07;55.56
64841;BME280;51307;52.162;7.560;2023-04-26T07:08:10;101379.44;;;6.22;55.47
64841;BME280;51307;52.162;7.560;2023-04-26T07:10:38;101367.72;;;6.24;55.20
64841;BME280;51307;52.162;7.560;2023-04-26T07:13:04;101371.06;;;6.04;54.17
64841;BME280;51307;52.162;7.560;2023-04-26T07:15:29;101377.34;;;6.03;53.87
64841;BME280;51307;52.162;7.560;2023-04-26T07:17:55;101376.69;;;5.88;53.87
64841;BME280;51307;52.162;7.560;2023-04-26T07:20:21;101376.09;;;5.96;53.34
64841;BME280;51307;52.162;7.560;2023-04-26T07:22:47;101383.69;;;5.65;53.96
64841;BME280;51307;52.162;7.560;2023-04-26T07:25:13;101379.28;;;5.77;54.12
64841;BME280;51307;52.162;7.560;2023-04-26T07:27:38;101382.38;;;5.95;54.00
64841;BME280;51307;52.162;7.560;2023-04-26T07:30:04;101386.84;;;5.94;54.68
64841;BME280;51307;52.162;7.560;2023-04-26T07:32:30;101387.09;;;6.02;54.25
64841;BME280;51307;52.162;7.560;2023-04-26T07:34:56;101378.81;;;6.18;53.69
64841;BME280;51307;52.162;7.560;2023-04-26T07:37:21;101374.13;;;6.22;54.19
64841;BME280;51307;52.162;7.560;2023-04-26T07:39:47;101393.22;;;5.92;54.33
64841;BME280;51307;52.162;7.560;2023-04-26T07:42:13;101387.72;;;6.06;53.64
64841;BME280;51307;52.162;7.560;2023-04-26T07:44:39;101384.88;;;6.32;53.44
64841;BME280;51307;52.162;7.560;2023-04-26T07:47:11;101374.88;;;6.35;53.15
64841;BME280;51307;52.162;7.560;2023-04-26T07:49:37;101372.72;;;6.63;52.63
64841;BME280;51307;52.162;7.560;2023-04-26T07:52:02;101376.41;;;6.27;53.10
64841;BME280;51307;52.162;7.560;2023-04-26T07:54:28;101386.44;;;6.23;52.96
64841;BME280;51307;52.162;7.560;2023-04-26T07:56:53;101386.72;;;6.43;52.36
64841;BME280;51307;52.162;7.560;2023-04-26T07:59:19;101390.56;;;6.38;52.52
64841;BME280;51307;52.162;7.560;2023-04-26T08:01:45;101382.50;;;6.51;52.21
64841;BME280;51307;52.162;7.560;2023-04-26T08:04:10;101385.75;;;6.55;52.11
64841;BME280;51307;52.162;7.560;2023-04-26T08:06:36;101376.94;;;6.77;51.45
64841;BME280;51307;52.162;7.560;2023-04-26T08:09:03;101377.69;;;6.56;51.93
64841;BME280;51307;52.162;7.560;2023-04-26T08:11:29;101381.91;;;6.59;51.88
64841;BME280;51307;52.162;7.560;2023-04-26T08:13:55;101383.97;;;6.55;51.55
64841;BME280;51307;52.162;7.560;2023-04-26T08:16:20;101376.00;;;6.78;51.52
64841;BME280;51307;52.162;7.560;2023-04-26T08:18:46;101369.22;;;6.63;50.73
64841;BME280;51307;52.162;7.560;2023-04-26T08:21:12;101373.56;;;6.86;50.68
64841;BME280;51307;52.162;7.560;2023-04-26T08:23:38;101373.19;;;6.57;50.57
64841;BME280;51307;52.162;7.560;2023-04-26T08:26:03;101376.59;;;6.93;49.63
64841;BME280;51307;52.162;7.560;2023-04-26T08:28:29;101372.00;;;6.84;49.83
64841;BME280;51307;52.162;7.560;2023-04-26T08:30:54;101378.25;;;7.17;48.81
64841;BME280;51307;52.162;7.560;2023-04-26T08:33:20;101378.28;;;7.05;48.93
64841;BME280;51307;52.162;7.560;2023-04-26T08:35:45;101378.16;;;7.18;48.50
64841;BME280;51307;52.162;7.560;2023-04-26T08:38:11;101381.06;;;7.15;48.43
64841;BME280;51307;52.162;7.560;2023-04-26T08:40:37;101377.06;;;7.10;48.95
64841;BME280;51307;52.162;7.560;2023-04-26T08:43:02;101380.75;;;7.41;48.55
64841;BME280;51307;52.162;7.560;2023-04-26T08:45:30;101373.63;;;7.30;48.44
64841;BME280;51307;52.162;7.560;2023-04-26T08:48:03;101381.06;;;7.59;46.80
64841;BME280;51307;52.162;7.560;2023-04-26T08:50:32;101375.59;;;7.17;47.47
64841;BME280;51307;52.162;7.560;2023-04-26T08:52:58;101376.94;;;7.66;47.38
64841;BME280;51307;52.162;7.560;2023-04-26T08:55:24;101380.66;;;7.43;47.84
64841;BME280;51307;52.162;7.560;2023-04-26T08:57:51;101378.53;;;7.57;47.70
64841;BME280;51307;52.162;7.560;2023-04-26T09:00:17;101384.66;;;7.69;45.55
64841;BME280;51307;52.162;7.560;2023-04-26T09:02:48;101382.94;;;7.47;46.46
64841;BME280;51307;52.162;7.560;2023-04-26T09:05:15;101388.00;;;7.50;46.31
64841;BME280;51307;52.162;7.560;2023-04-26T09:07:45;101391.34;;;7.64;45.67
64841;BME280;51307;52.162;7.560;2023-04-26T09:10:13;101387.50;;;7.56;45.49
64841;BME280;51307;52.162;7.560;2023-04-26T09:12:42;101388.88;;;7.39;46.50
64841;BME280;51307;52.162;7.560;2023-04-26T09:15:08;101396.66;;;7.75;46.03
64841;BME280;51307;52.162;7.560;2023-04-26T09:17:38;101385.63;;;7.36;45.37
64841;BME280;51307;52.162;7.560;2023-04-26T09:20:26;101384.44;;;7.61;45.56
64841;BME280;51307;52.162;7.560;2023-04-26T09:23:12;101394.22;;;7.28;45.29
64841;BME280;51307;52.162;7.560;2023-04-26T09:25:37;101384.63;;;7.48;45.45
64841;BME280;51307;52.162;7.560;2023-04-26T09:28:18;101396.28;;;7.36;45.73
64841;BME280;51307;52.162;7.560;2023-04-26T09:30:45;101396.16;;;7.37;45.25
64841;BME280;51307;52.162;7.560;2023-04-26T09:33:10;101391.09;;;7.23;45.48
64841;BME280;51307;52.162;7.560;2023-04-26T09:35:41;101391.81;;;7.14;46.30
64841;BME280;51307;52.162;7.560;2023-04-26T09:38:17;101392.78;;;6.79;46.15
64841;BME280;51307;52.162;7.560;2023-04-26T09:40:49;101393.75;;;6.89;46.21
64841;BME280;51307;52.162;7.560;2023-04-26T09:43:17;101393.38;;;7.28;45.71
64841;BME280;51307;52.162;7.560;2023-04-26T09:48:23;101399.38;;;7.52;45.04
64841;BME280;51307;52.162;7.560;2023-04-26T09:50:52;101394.22;;;7.17;45.45
64841;BME280;51307;52.162;7.560;2023-04-26T09:58:58;101383.22;;;7.21;44.91
64841;BME280;51307;52.162;7.560;2023-04-26T10:01:26;101382.13;;;7.24;45.10
64841;BME280;51307;52.162;7.560;2023-04-26T10:03:56;101382.25;;;7.66;44.75
64841;BME280;51307;52.162;7.560;2023-04-26T10:06:22;101380.88;;;7.72;44.85
64841;BME280;51307;52.162;7.560;2023-04-26T10:08:49;101378.97;;;7.74;44.69
64841;BME280;51307;52.162;7.560;2023-04-26T10:11:14;101383.75;;;7.59;44.09
64841;BME280;51307;52.162;7.560;2023-04-26T10:13:41;101375.53;;;7.51;44.04
64841;BME280;51307;52.162;7.560;2023-04-26T10:16:08;101379.03;;;7.51;44.61
64841;BME280;51307;52.162;7.560;2023-04-26T10:18:34;101374.97;;;7.36;44.63
64841;BME280;51307;52.162;7.560;2023-04-26T10:21:20;101376.72;;;7.58;44.02
64841;BME280;51307;52.162;7.560;2023-04-26T10:23:50;101381.44;;;7.54;44.48
64841;BME280;51307;52.162;7.560;2023-04-26T10:30:04;101369.22;;;7.52;44.67
64841;BME280;51307;52.162;7.560;2023-04-26T10:32:11;101378.75;;;7.33;44.96
64841;BME280;51307;52.162;7.560;2023-04-26T10:34:41;101368.09;;;7.33;45.26
64841;BME280;51307;52.162;7.560;2023-04-26T10:37:12;101372.88;;;7.51;44.53
64841;BME280;51307;52.162;7.560;2023-04-26T10:39:40;101375.28;;;7.54;44.17
64841;BME280;51307;52.162;7.560;2023-04-26T10:42:26;101376.84;;;7.56;44.27
64841;BME280;51307;52.162;7.560;2023-04-26T10:47:34;101366.38;;;7.97;44.76
64841;BME280;51307;52.162;7.560;2023-04-26T10:52:28;101365.13;;;7.80;44.33
64841;BME280;51307;52.162;7.560;2023-04-26T10:54:56;101360.84;;;7.89;44.63
64841;BME280;51307;52.162;7.560;2023-04-26T10:58:24;101370.22;;;7.83;45.32
64841;BME280;51307;52.162;7.560;2023-04-26T11:05:38;101362.63;;;8.21;44.73
64841;BME280;51307;52.162;7.560;2023-04-26T11:08:19;101369.56;;;8.33;43.79
64841;BME280;51307;52.162;7.560;2023-04-26T11:10:52;101352.50;;;8.24;43.41
64841;BME280;51307;52.162;7.560;2023-04-26T11:13:20;101358.16;;;8.31;44.11
64841;BME280;51307;52.162;7.560;2023-04-26T11:15:46;101349.13;;;8.44;42.74
64841;BME280;51307;52.162;7.560;2023-04-26T11:18:12;101355.16;;;8.46;42.75
64841;BME280;51307;52.162;7.560;2023-04-26T11:20:37;101360.78;;;8.42;42.76
64841;BME280;51307;52.162;7.560;2023-04-26T11:23:06;101344.59;;;8.65;42.42
64841;BME280;51307;52.162;7.560;2023-04-26T11:25:32;101351.03;;;8.63;42.61
64841;BME280;51307;52.162;7.560;2023-04-26T11:28:02;101349.44;;;8.50;42.58
64841;BME280;51307;52.162;7.560;2023-04-26T11:30:29;101342.97;;;8.53;43.19
64841;BME280;51307;52.162;7.560;2023-04-26T11:32:59;101349.31;;;8.52;42.26
64841;BME280;51307;52.162;7.560;2023-04-26T11:35:26;101353.31;;;8.15;41.11
64841;BME280;51307;52.162;7.560;2023-04-26T11:37:57;101351.75;;;8.13;40.44
64841;BME280;51307;52.162;7.560;2023-04-26T11:40:27;101354.75;;;8.19;39.29
64841;BME280;51307;52.162;7.560;2023-04-26T11:42:52;101353.59;;;8.43;40.31
64841;BME280;51307;52.162;7.560;2023-04-26T11:45:18;101358.06;;;8.33;41.08
64841;BME280;51307;52.162;7.560;2023-04-26T11:47:45;101355.19;;;8.55;41.20
64841;BME280;51307;52.162;7.560;2023-04-26T11:50:12;101364.50;;;8.30;41.35
64841;BME280;51307;52.162;7.560;2023-04-26T11:52:39;101362.78;;;8.29;41.71
64841;BME280;51307;52.162;7.560;2023-04-26T11:55:06;101361.97;;;8.07;41.00
64841;BME280;51307;52.162;7.560;2023-04-26T11:57:32;101363.16;;;8.46;40.98
64841;BME280;51307;52.162;7.560;2023-04-26T12:02:35;101368.13;;;8.29;41.49
64841;BME280;51307;52.162;7.560;2023-04-26T12:05:01;101385.03;;;8.39;41.44
64841;BME280;51307;52.162;7.560;2023-04-26T12:07:34;101363.81;;;8.38;41.14
64841;BME280;51307;52.162;7.560;2023-04-26T12:10:13;101362.00;;;8.38;41.23
64841;BME280;51307;52.162;7.560;2023-04-26T12:12:43;101362.38;;;8.55;40.59
64841;BME280;51307;52.162;7.560;2023-04-26T12:15:10;101359.56;;;8.56;40.42
64841;BME280;51307;52.162;7.560;2023-04-26T12:17:36;101365.56;;;8.49;39.74
64841;BME280;51307;52.162;7.560;2023-04-26T12:20:08;101359.78;;;8.74;40.73
64841;BME280;51307;52.162;7.560;2023-04-26T12:22:34;101360.19;;;8.70;40.35
64841;BME280;51307;52.162;7.560;2023-04-26T12:25:04;101363.94;;;8.57;40.46
64841;BME280;51307;52.162;7.560;2023-04-26T12:27:32;101359.38;;;8.48;39.51
64841;BME280;51307;52.162;7.560;2023-04-26T12:29:58;101360.94;;;8.51;39.18
64841;BME280;51307;52.162;7.560;2023-04-26T12:32:24;101356.53;;;8.71;39.20
64841;BME280;51307;52.162;7.560;2023-04-26T12:34:49;101370.97;;;8.89;38.12
64841;BME280;51307;52.162;7.560;2023-04-26T12:37:15;101361.41;;;8.87;37.67
64841;BME280;51307;52.162;7.560;2023-04-26T12:39:41;101358.09;;;8.42;37.19
64841;BME280;51307;52.162;7.560;2023-04-26T12:42:07;101357.94;;;8.96;38.15
64841;BME280;51307;52.162;7.560;2023-04-26T12:44:33;101359.88;;;8.94;37.47
64841;BME280;51307;52.162;7.560;2023-04-26T12:46:58;101363.78;;;8.59;35.97
64841;BME280;51307;52.162;7.560;2023-04-26T12:49:24;101357.06;;;8.96;36.74
64841;BME280;51307;52.162;7.560;2023-04-26T12:51:49;101351.94;;;9.14;36.61
64841;BME280;51307;52.162;7.560;2023-04-26T12:54:15;101354.63;;;9.23;36.34
64841;BME280;51307;52.162;7.560;2023-04-26T12:56:40;101351.53;;;9.28;35.88
64841;BME280;51307;52.162;7.560;2023-04-26T12:59:08;101345.50;;;9.46;36.27
64841;BME280;51307;52.162;7.560;2023-04-26T13:01:34;101348.00;;;9.18;35.75
64841;BME280;51307;52.162;7.560;2023-04-26T13:03:59;101354.91;;;9.50;35.70
64841;BME280;51307;52.162;7.560;2023-04-26T13:06:26;101345.63;;;9.34;35.13
64841;BME280;51307;52.162;7.560;2023-04-26T13:08:52;101346.22;;;9.38;36.73
64841;BME280;51307;52.162;7.560;2023-04-26T13:11:18;101352.25;;;9.50;35.58
64841;BME280;51307;52.162;7.560;2023-04-26T13:13:43;101358.84;;;9.46;35.80
64841;BME280;51307;52.162;7.560;2023-04-26T13:16:09;101351.84;;;9.84;36.36
64841;BME280;51307;52.162;7.560;2023-04-26T13:18:34;101346.94;;;9.59;36.90
64841;BME280;51307;52.162;7.560;2023-04-26T13:21:00;101357.03;;;9.66;37.43
64841;BME280;51307;52.162;7.560;2023-04-26T13:23:25;101348.63;;;9.70;36.58